createdAt,value
2016-09-01T00:00:47.969Z,13.79
2016-09-01T00:01:46.571Z,13.83
2016-09-01T00:02:46.577Z,13.84
2016-09-01T00:03:46.571Z,13.84
2016-09-01T00:04:46.558Z,13.79
2016-09-01T00:05:46.568Z,13.81
2016-09-01T00:06:46.552Z,13.84
2016-09-01T00:07:46.543Z,13.7
2016-09-01T00:08:46.547Z,13.78
2016-09-01T00:09:46.538Z,13.79
2016-09-01T00:10:46.532Z,13.68
2016-09-01T00:11:46.530Z,13.68
2016-09-01T00:12:46.523Z,13.78
2016-09-01T00:13:46.518Z,13.72
2016-09-01T00:14:46.519Z,13.75
2016-09-01T00:15:46.509Z,13.65
2016-09-01T00:16:46.495Z,13.62
2016-09-01T00:17:47.219Z,13.62
2016-09-01T00:18:46.491Z,13.66
2016-09-01T00:19:46.483Z,13.69
2016-09-01T00:20:46.487Z,13.68
2016-09-01T00:21:46.489Z,13.58
2016-09-01T00:22:46.494Z,13.62
2016-09-01T00:23:46.469Z,13.6
2016-09-01T00:24:46.461Z,13.63
2016-09-01T00:25:46.455Z,13.5
2016-09-01T00:26:46.446Z,13.53
2016-09-01T00:27:46.445Z,13.54
2016-09-01T00:28:46.444Z,13.5
2016-09-01T00:29:46.434Z,13.51
2016-09-01T00:30:46.435Z,13.5
2016-09-01T00:31:46.427Z,13.47
2016-09-01T00:32:46.426Z,13.45
2016-09-01T00:33:46.415Z,13.53
2016-09-01T00:34:46.407Z,13.42
2016-09-01T00:35:46.502Z,13.53
2016-09-01T00:36:46.446Z,13.47
2016-09-01T00:37:46.390Z,13.51
2016-09-01T00:38:46.385Z,13.51
2016-09-01T00:39:46.381Z,13.51
2016-09-01T00:40:46.388Z,13.4
2016-09-01T00:41:46.368Z,13.45
2016-09-01T00:42:46.364Z,13.4
2016-09-01T00:43:46.368Z,13.48
2016-09-01T00:44:46.350Z,13.47
2016-09-01T00:45:46.346Z,13.44
2016-09-01T00:46:46.361Z,13.45
2016-09-01T00:47:46.337Z,13.44
2016-09-01T00:48:46.331Z,13.51
2016-09-01T00:49:46.333Z,13.4
2016-09-01T00:50:46.321Z,13.36
2016-09-01T00:51:46.327Z,13.37
2016-09-01T00:52:46.312Z,13.37
2016-09-01T00:53:46.351Z,13.37
2016-09-01T00:54:46.302Z,13.37
2016-09-01T00:55:46.291Z,13.29
2016-09-01T00:56:46.294Z,13.31
2016-09-01T00:57:46.283Z,13.28
2016-09-01T00:58:46.285Z,13.27
2016-09-01T00:59:46.277Z,13.32
2016-09-01T01:00:46.287Z,13.29
2016-09-01T01:01:46.974Z,13.29
2016-09-01T01:02:46.259Z,13.31
2016-09-01T01:03:46.251Z,13.35
2016-09-01T01:04:46.248Z,13.37
2016-09-01T01:05:46.252Z,13.25
2016-09-01T01:06:46.232Z,13.31
2016-09-01T01:07:46.233Z,13.31
2016-09-01T01:08:46.225Z,13.25
2016-09-01T01:09:46.222Z,13.21
2016-09-01T01:10:46.219Z,13.16
2016-09-01T01:11:46.205Z,13.19
2016-09-01T01:12:46.922Z,13.19
2016-09-01T01:13:46.204Z,13.13
2016-09-01T01:14:46.192Z,13.14
2016-09-01T01:15:46.188Z,13.13
2016-09-01T01:16:46.174Z,13.11
2016-09-01T01:17:46.173Z,13.1
2016-09-01T01:18:46.176Z,13.03
2016-09-01T01:19:46.162Z,13.09
2016-09-01T01:20:46.159Z,13.06
2016-09-01T01:21:46.145Z,12.94
2016-09-01T01:22:46.141Z,13.03
2016-09-01T01:23:46.136Z,12.91
2016-09-01T01:24:46.118Z,12.95
2016-09-01T01:25:46.119Z,12.98
2016-09-01T01:26:46.121Z,12.91
2016-09-01T01:27:46.109Z,12.95
2016-09-01T01:28:46.120Z,12.83
2016-09-01T01:29:46.106Z,12.91
2016-09-01T01:30:46.097Z,12.86
2016-09-01T01:31:46.093Z,12.83
2016-09-01T01:32:46.110Z,12.84
2016-09-01T01:33:46.077Z,12.77
2016-09-01T01:34:46.088Z,12.81
2016-09-01T01:35:46.063Z,12.81
2016-09-01T01:36:46.117Z,12.71
2016-09-01T01:37:46.064Z,12.76
2016-09-01T01:38:46.048Z,12.78
2016-09-01T01:39:46.049Z,12.76
2016-09-01T01:40:46.044Z,12.74
2016-09-01T01:41:46.050Z,12.77
2016-09-01T01:42:46.024Z,12.7
2016-09-01T01:43:46.729Z,12.74
2016-09-01T01:44:46.024Z,12.7
2016-09-01T01:45:46.007Z,12.73
2016-09-01T01:46:46.008Z,12.77
2016-09-01T01:47:46.710Z,12.69
2016-09-01T01:48:46.723Z,12.74
2016-09-01T01:49:45.990Z,12.7
2016-09-01T01:50:45.987Z,12.62
2016-09-01T01:51:45.975Z,12.65
2016-09-01T01:52:45.969Z,12.59
2016-09-01T01:53:45.976Z,12.59
2016-09-01T01:54:45.960Z,12.61
2016-09-01T01:55:46.670Z,12.55
2016-09-01T01:56:45.943Z,12.63
2016-09-01T01:57:45.936Z,12.51
2016-09-01T01:58:45.939Z,12.55
2016-09-01T01:59:45.937Z,12.53
2016-09-01T02:00:45.944Z,12.38
2016-09-01T02:01:45.917Z,12.41
2016-09-01T02:02:45.914Z,12.45
2016-09-01T02:03:45.906Z,12.43
2016-09-01T02:04:45.898Z,12.45
2016-09-01T02:05:45.892Z,12.36
2016-09-01T02:06:45.895Z,12.23
2016-09-01T02:07:45.870Z,12.4
2016-09-01T02:08:45.876Z,12.41
2016-09-01T02:09:45.871Z,12.31
2016-09-01T02:10:46.575Z,12.41
2016-09-01T02:11:45.864Z,12.23
2016-09-01T02:12:45.866Z,12.29
2016-09-01T02:13:45.841Z,12.26
2016-09-01T02:14:45.833Z,12.38
2016-09-01T02:15:45.835Z,12.36
2016-09-01T02:16:45.829Z,12.26
2016-09-01T02:17:45.825Z,12.29
2016-09-01T02:18:45.815Z,12.29
2016-09-01T02:19:45.836Z,12.29
2016-09-01T02:20:45.799Z,12.36
2016-09-01T02:21:45.796Z,12.33
2016-09-01T02:22:45.799Z,12.34
2016-09-01T02:23:45.791Z,12.33
2016-09-01T02:24:45.820Z,12.38
2016-09-01T02:25:45.769Z,12.18
2016-09-01T02:26:45.760Z,12.22
2016-09-01T02:27:45.762Z,12.25
2016-09-01T02:28:45.749Z,12.22
2016-09-01T02:29:45.752Z,12.18
2016-09-01T02:30:45.733Z,12.13
2016-09-01T02:31:45.732Z,12.2
2016-09-01T02:32:45.728Z,12.15
2016-09-01T02:33:45.722Z,12.16
2016-09-01T02:34:45.718Z,12.13
2016-09-01T02:35:46.415Z,12.05
2016-09-01T02:36:45.694Z,12.16
2016-09-01T02:37:45.691Z,12.16
2016-09-01T02:38:45.677Z,12.22
2016-09-01T02:39:45.684Z,12.18
2016-09-01T02:40:45.681Z,12.13
2016-09-01T02:41:45.672Z,12.18
2016-09-01T02:42:45.667Z,12.08
2016-09-01T02:43:45.653Z,12.04
2016-09-01T02:44:46.357Z,12.1
2016-09-01T02:45:45.641Z,12.08
2016-09-01T02:46:45.632Z,12.13
2016-09-01T02:47:45.636Z,12.13
2016-09-01T02:48:45.624Z,12.03
2016-09-01T02:49:45.614Z,12.03
2016-09-01T02:50:45.609Z,12.08
2016-09-01T02:51:45.613Z,12.03
2016-09-01T02:52:45.598Z,12.01
2016-09-01T02:53:45.591Z,12.01
2016-09-01T02:54:45.588Z,12.04
2016-09-01T02:55:45.593Z,12
2016-09-01T02:56:46.286Z,12.04
2016-09-01T02:57:45.561Z,12.03
2016-09-01T02:58:45.556Z,12
2016-09-01T02:59:45.553Z,12
2016-09-01T03:00:45.536Z,11.97
2016-09-01T03:01:45.540Z,11.88
2016-09-01T03:02:45.525Z,11.88
2016-09-01T03:03:45.518Z,11.78
2016-09-01T03:04:45.515Z,11.78
2016-09-01T03:05:45.512Z,11.91
2016-09-01T03:06:45.500Z,11.94
2016-09-01T03:07:45.512Z,11.79
2016-09-01T03:08:45.486Z,11.79
2016-09-01T03:09:45.492Z,11.78
2016-09-01T03:10:45.480Z,11.67
2016-09-01T03:11:45.466Z,11.82
2016-09-01T03:13:00.341Z,11.73
2016-09-01T03:13:45.451Z,11.79
2016-09-01T03:14:45.455Z,11.78
2016-09-01T03:15:45.445Z,11.66
2016-09-01T03:16:45.437Z,11.67
2016-09-01T03:17:45.444Z,11.64
2016-09-01T03:18:46.149Z,11.73
2016-09-01T03:19:45.415Z,11.68
2016-09-01T03:20:45.401Z,11.59
2016-09-01T03:21:46.121Z,11.68
2016-09-01T03:22:45.401Z,11.78
2016-09-01T03:23:46.103Z,11.76
2016-09-01T03:24:45.394Z,11.82
2016-09-01T03:25:45.394Z,11.78
2016-09-01T03:26:45.372Z,11.79
2016-09-01T03:27:45.365Z,11.76
2016-09-01T03:28:45.352Z,11.76
2016-09-01T03:29:45.364Z,11.79
2016-09-01T03:30:45.338Z,11.79
2016-09-01T03:31:45.342Z,11.79
2016-09-01T03:32:45.339Z,11.7
2016-09-01T03:33:45.334Z,11.82
2016-09-01T03:34:45.319Z,11.66
2016-09-01T03:35:45.308Z,11.67
2016-09-01T03:36:45.305Z,11.64
2016-09-01T03:37:45.303Z,11.66
2016-09-01T03:38:45.311Z,11.79
2016-09-01T03:39:45.297Z,11.66
2016-09-01T03:40:45.293Z,11.66
2016-09-01T03:41:45.276Z,11.82
2016-09-01T03:42:45.281Z,11.7
2016-09-01T03:43:45.260Z,11.82
2016-09-01T03:44:45.261Z,11.82
2016-09-01T03:45:45.258Z,11.82
2016-09-01T03:46:45.262Z,11.78
2016-09-01T03:47:45.791Z,11.75
2016-09-01T03:48:45.216Z,11.76
2016-09-01T03:49:45.395Z,11.79
2016-09-01T03:50:45.214Z,11.81
2016-09-01T03:51:45.195Z,11.84
2016-09-01T03:52:45.191Z,11.81
2016-09-01T03:53:45.517Z,11.82
2016-09-01T03:54:45.179Z,11.82
2016-09-01T03:55:45.171Z,11.81
2016-09-01T03:56:45.238Z,11.82
2016-09-01T03:57:45.167Z,11.82
2016-09-01T03:58:45.147Z,11.85
2016-09-01T03:59:45.143Z,11.86
2016-09-01T04:00:45.139Z,11.89
2016-09-01T04:01:45.136Z,11.86
2016-09-01T04:02:45.126Z,11.79
2016-09-01T04:03:45.119Z,11.79
2016-09-01T04:04:45.108Z,11.79
2016-09-01T04:05:45.106Z,11.89
2016-09-01T04:06:45.091Z,11.85
2016-09-01T04:07:45.097Z,11.88
2016-09-01T04:08:45.098Z,11.91
2016-09-01T04:09:45.075Z,11.85
2016-09-01T04:10:45.069Z,11.85
2016-09-01T04:11:45.061Z,11.82
2016-09-01T04:12:45.047Z,11.84
2016-09-01T04:13:45.054Z,11.94
2016-09-01T04:14:45.041Z,11.91
2016-09-01T04:15:45.028Z,11.85
2016-09-01T04:16:45.227Z,11.79
2016-09-01T04:17:45.028Z,11.81
2016-09-01T04:18:45.025Z,11.85
2016-09-01T04:19:45.725Z,11.76
2016-09-01T04:20:45.722Z,11.75
2016-09-01T04:21:45.005Z,11.81
2016-09-01T04:22:44.986Z,11.84
2016-09-01T04:23:44.981Z,11.67
2016-09-01T04:24:44.987Z,11.68
2016-09-01T04:25:44.965Z,11.75
2016-09-01T04:26:44.964Z,11.64
2016-09-01T04:27:44.950Z,11.66
2016-09-01T04:28:44.948Z,11.68
2016-09-01T04:29:44.947Z,11.64
2016-09-01T04:30:44.927Z,11.7
2016-09-01T04:31:45.630Z,11.79
2016-09-01T04:32:44.931Z,11.78
2016-09-01T04:33:44.910Z,11.78
2016-09-01T04:34:44.910Z,11.79
2016-09-01T04:35:47.378Z,11.78
2016-09-01T04:36:44.883Z,11.81
2016-09-01T04:37:45.594Z,11.89
2016-09-01T04:38:44.878Z,11.86
2016-09-01T04:39:44.873Z,11.82
2016-09-01T04:40:44.869Z,11.82
2016-09-01T04:41:44.861Z,11.86
2016-09-01T04:42:44.913Z,11.82
2016-09-01T04:43:44.852Z,11.94
2016-09-01T04:44:44.835Z,11.89
2016-09-01T04:45:44.826Z,11.91
2016-09-01T04:46:44.820Z,11.91
2016-09-01T04:47:44.810Z,11.89
2016-09-01T04:48:44.807Z,11.89
2016-09-01T04:49:44.805Z,11.97
2016-09-01T04:50:44.799Z,12.04
2016-09-01T04:51:44.782Z,12.03
2016-09-01T04:52:44.784Z,12.07
2016-09-01T04:53:44.776Z,11.98
2016-09-01T04:54:44.772Z,11.91
2016-09-01T04:55:44.760Z,12.04
2016-09-01T04:56:44.744Z,12.04
2016-09-01T04:57:44.751Z,12.08
2016-09-01T04:58:44.738Z,12.13
2016-09-01T04:59:44.746Z,12.1
2016-09-01T05:00:44.730Z,12.08
2016-09-01T05:01:45.446Z,12.18
2016-09-01T05:02:44.713Z,12.18
2016-09-01T05:03:44.707Z,12.2
2016-09-01T05:04:44.698Z,12.16
2016-09-01T05:05:45.398Z,12.23
2016-09-01T05:06:44.677Z,12.25
2016-09-01T05:07:44.672Z,12.23
2016-09-01T05:08:44.678Z,12.34
2016-09-01T05:09:44.675Z,12.26
2016-09-01T05:10:44.663Z,12.31
2016-09-01T05:11:44.659Z,12.29
2016-09-01T05:12:45.367Z,12.34
2016-09-01T05:13:44.634Z,12.31
2016-09-01T05:14:44.633Z,12.29
2016-09-01T05:15:44.625Z,12.29
2016-09-01T05:16:44.615Z,12.36
2016-09-01T05:17:44.617Z,12.41
2016-09-01T05:18:44.599Z,12.28
2016-09-01T05:19:44.601Z,12.33
2016-09-01T05:20:44.618Z,12.25
2016-09-01T05:21:44.580Z,12.41
2016-09-01T05:22:44.580Z,12.4
2016-09-01T05:23:44.582Z,12.45
2016-09-01T05:24:44.564Z,12.4
2016-09-01T05:25:44.555Z,12.43
2016-09-01T05:26:44.547Z,12.56
2016-09-01T05:27:44.542Z,12.52
2016-09-01T05:28:44.541Z,12.61
2016-09-01T05:29:44.537Z,12.63
2016-09-01T05:30:44.580Z,12.59
2016-09-01T05:31:44.520Z,12.65
2016-09-01T05:32:44.518Z,12.62
2016-09-01T05:33:44.505Z,12.66
2016-09-01T05:34:44.508Z,12.71
2016-09-01T05:35:45.640Z,12.73
2016-09-01T05:36:44.494Z,12.8
2016-09-01T05:37:44.489Z,12.78
2016-09-01T05:38:44.490Z,12.83
2016-09-01T05:39:44.483Z,12.83
2016-09-01T05:40:44.464Z,12.88
2016-09-01T05:41:44.467Z,12.88
2016-09-01T05:42:44.474Z,12.92
2016-09-01T05:43:44.519Z,12.95
2016-09-01T05:44:44.479Z,12.94
2016-09-01T05:45:44.435Z,12.99
2016-09-01T05:46:44.536Z,12.94
2016-09-01T05:47:44.439Z,13.01
2016-09-01T05:48:44.420Z,13.03
2016-09-01T05:49:44.414Z,13.01
2016-09-01T05:50:44.414Z,13.13
2016-09-01T05:51:44.397Z,13.06
2016-09-01T05:52:44.428Z,13.07
2016-09-01T05:53:44.388Z,13.19
2016-09-01T05:54:44.376Z,13.24
2016-09-01T05:55:44.402Z,13.2
2016-09-01T05:56:44.357Z,13.28
2016-09-01T05:57:44.367Z,13.36
2016-09-01T05:58:45.063Z,13.39
2016-09-01T05:59:44.346Z,13.39
2016-09-01T06:00:44.344Z,13.37
2016-09-01T06:01:44.339Z,13.5
2016-09-01T06:02:44.332Z,13.42
2016-09-01T06:03:44.315Z,13.47
2016-09-01T06:04:44.326Z,13.51
2016-09-01T06:05:45.018Z,13.5
2016-09-01T06:06:44.300Z,13.53
2016-09-01T06:07:44.300Z,13.6
2016-09-01T06:08:44.298Z,13.66
2016-09-01T06:09:44.313Z,13.66
2016-09-01T06:10:44.297Z,13.7
2016-09-01T06:11:44.279Z,13.79
2016-09-01T06:12:44.271Z,13.81
2016-09-01T06:13:44.271Z,13.88
2016-09-01T06:14:44.258Z,13.87
2016-09-01T06:15:44.255Z,13.95
2016-09-01T06:16:44.258Z,13.97
2016-09-01T06:17:44.237Z,13.99
2016-09-01T06:18:44.234Z,14.02
2016-09-01T06:19:44.947Z,13.9
2016-09-01T06:20:44.959Z,14.06
2016-09-01T06:21:44.237Z,14.09
2016-09-01T06:22:44.216Z,14.11
2016-09-01T06:23:44.208Z,14.12
2016-09-01T06:24:44.200Z,14.08
2016-09-01T06:25:44.198Z,14.11
2016-09-01T06:26:44.207Z,14.16
2016-09-01T06:27:44.181Z,14.21
2016-09-01T06:28:44.192Z,14.28
2016-09-01T06:29:44.189Z,14.31
2016-09-01T06:30:44.168Z,14.27
2016-09-01T06:31:44.164Z,14.31
2016-09-01T06:32:44.155Z,14.28
2016-09-01T06:33:44.152Z,14.36
2016-09-01T06:34:44.163Z,14.45
2016-09-01T06:35:45.058Z,14.44
2016-09-01T06:36:44.145Z,14.49
2016-09-01T06:37:44.202Z,14.45
2016-09-01T06:38:44.125Z,14.46
2016-09-01T06:39:44.122Z,14.48
2016-09-01T06:40:44.129Z,14.61
2016-09-01T06:41:44.126Z,14.71
2016-09-01T06:42:44.110Z,14.7
2016-09-01T06:43:44.115Z,14.79
2016-09-01T06:44:44.099Z,14.97
2016-09-01T06:45:44.101Z,15.12
2016-09-01T06:46:44.089Z,15.19
2016-09-01T06:47:44.098Z,15.44
2016-09-01T06:48:44.079Z,15.71
2016-09-01T06:49:44.081Z,16
2016-09-01T06:50:44.803Z,16.27
2016-09-01T06:51:44.076Z,16.77
2016-09-01T06:52:44.102Z,17.21
2016-09-01T06:53:44.067Z,17.83
2016-09-01T06:54:44.066Z,18.42
2016-09-01T06:55:44.063Z,18.94
2016-09-01T06:56:44.059Z,19.56
2016-09-01T06:57:44.084Z,19.93
2016-09-01T06:58:44.063Z,20.02
2016-09-01T06:59:44.046Z,20.04
2016-09-01T07:00:44.042Z,20.15
2016-09-01T07:01:44.038Z,20.42
2016-09-01T07:02:44.745Z,20.79
2016-09-01T07:03:44.036Z,21.21
2016-09-01T07:04:44.027Z,21.49
2016-09-01T07:05:44.040Z,21.85
2016-09-01T07:06:44.025Z,22.05
2016-09-01T07:07:44.037Z,22.36
2016-09-01T07:08:44.018Z,22.85
2016-09-01T07:09:44.022Z,23.06
2016-09-01T07:10:44.027Z,23.4
2016-09-01T07:11:44.008Z,23.64
2016-09-01T07:12:44.015Z,23.66
2016-09-01T07:13:44.010Z,23.7
2016-09-01T07:14:44.009Z,23.67
2016-09-01T07:15:44.007Z,23.78
2016-09-01T07:16:44.726Z,23.77
2016-09-01T07:17:44.010Z,23.77
2016-09-01T07:18:44.000Z,23.71
2016-09-01T07:19:43.997Z,23.55
2016-09-01T07:20:43.994Z,23.47
2016-09-01T07:21:43.996Z,23.28
2016-09-01T07:22:43.986Z,23.15
2016-09-01T07:23:44.619Z,23.01
2016-09-01T07:24:43.997Z,22.71
2016-09-01T07:25:43.994Z,22.54
2016-09-01T07:26:44.000Z,22.38
2016-09-01T07:27:44.703Z,22.26
2016-09-01T07:28:43.988Z,22.11
2016-09-01T07:29:44.076Z,21.97
2016-09-01T07:30:43.988Z,22
2016-09-01T07:31:43.985Z,21.89
2016-09-01T07:32:43.973Z,21.78
2016-09-01T07:33:44.699Z,21.67
2016-09-01T07:34:43.977Z,21.62
2016-09-01T07:35:44.130Z,21.61
2016-09-01T07:36:43.981Z,21.49
2016-09-01T07:37:44.031Z,21.45
2016-09-01T07:38:43.982Z,21.46
2016-09-01T07:39:43.984Z,21.45
2016-09-01T07:40:44.024Z,21.36
2016-09-01T07:41:43.974Z,21.3
2016-09-01T07:42:43.970Z,21.37
2016-09-01T07:43:44.058Z,21.25
2016-09-01T07:44:43.962Z,21.28
2016-09-01T07:45:43.970Z,21.31
2016-09-01T07:46:43.981Z,21.22
2016-09-01T07:47:43.965Z,21.23
2016-09-01T07:48:43.968Z,21.22
2016-09-01T07:49:43.978Z,21.18
2016-09-01T07:50:43.970Z,21.19
2016-09-01T07:51:43.984Z,21.18
2016-09-01T07:52:43.979Z,21.3
2016-09-01T07:53:44.004Z,21.19
2016-09-01T07:54:43.966Z,21.28
2016-09-01T07:55:44.677Z,21.28
2016-09-01T07:56:44.100Z,21.28
2016-09-01T07:57:43.968Z,21.23
2016-09-01T07:58:43.961Z,21.28
2016-09-01T07:59:43.968Z,21.34
2016-09-01T08:00:43.970Z,21.4
2016-09-01T08:01:43.969Z,21.37
2016-09-01T08:02:43.957Z,21.36
2016-09-01T08:03:43.963Z,21.37
2016-09-01T08:04:43.969Z,21.41
2016-09-01T08:05:43.969Z,21.37
2016-09-01T08:06:43.976Z,21.49
2016-09-01T08:07:43.963Z,21.49
2016-09-01T08:08:43.958Z,21.46
2016-09-01T08:09:43.965Z,21.56
2016-09-01T08:10:43.959Z,21.58
2016-09-01T08:11:44.019Z,21.61
2016-09-01T08:12:44.684Z,21.61
2016-09-01T08:13:43.957Z,21.62
2016-09-01T08:14:43.971Z,21.73
2016-09-01T08:15:43.960Z,21.82
2016-09-01T08:16:43.969Z,21.78
2016-09-01T08:17:43.976Z,21.89
2016-09-01T08:18:43.966Z,21.99
2016-09-01T08:19:43.965Z,21.89
2016-09-01T08:20:43.965Z,21.89
2016-09-01T08:21:43.958Z,21.9
2016-09-01T08:22:43.955Z,21.9
2016-09-01T08:23:43.959Z,21.9
2016-09-01T08:24:43.954Z,21.82
2016-09-01T08:25:43.961Z,21.9
2016-09-01T08:26:43.955Z,21.85
2016-09-01T08:27:43.976Z,22.05
2016-09-01T08:28:43.955Z,21.94
2016-09-01T08:29:43.985Z,21.9
2016-09-01T08:30:43.952Z,21.93
2016-09-01T08:31:43.961Z,21.89
2016-09-01T08:32:43.953Z,21.89
2016-09-01T08:33:43.958Z,21.94
2016-09-01T08:34:43.956Z,22
2016-09-01T08:35:43.962Z,21.96
2016-09-01T08:36:43.954Z,22.05
2016-09-01T08:37:44.003Z,21.93
2016-09-01T08:38:43.955Z,21.99
2016-09-01T08:39:43.958Z,21.92
2016-09-01T08:40:43.963Z,22.11
2016-09-01T08:41:43.959Z,22.12
2016-09-01T08:42:43.948Z,22.16
2016-09-01T08:43:43.975Z,22.05
2016-09-01T08:44:43.958Z,22.16
2016-09-01T08:45:43.965Z,22.11
2016-09-01T08:46:43.970Z,22.23
2016-09-01T08:47:43.967Z,22.3
2016-09-01T08:48:43.963Z,22.3
2016-09-01T08:49:43.984Z,22.38
2016-09-01T08:50:43.968Z,22.38
2016-09-01T08:51:43.953Z,22.41
2016-09-01T08:52:43.955Z,22.49
2016-09-01T08:53:43.997Z,22.57
2016-09-01T08:54:43.964Z,22.51
2016-09-01T08:55:43.956Z,22.61
2016-09-01T08:56:43.946Z,22.63
2016-09-01T08:57:43.963Z,22.63
2016-09-01T08:58:43.958Z,22.57
2016-09-01T08:59:43.962Z,22.52
2016-09-01T09:00:43.975Z,22.49
2016-09-01T09:01:43.949Z,22.55
2016-09-01T09:02:43.961Z,22.54
2016-09-01T09:03:43.959Z,22.55
2016-09-01T09:04:43.964Z,22.64
2016-09-01T09:05:44.666Z,22.76
2016-09-01T09:06:43.973Z,22.76
2016-09-01T09:07:43.951Z,22.81
2016-09-01T09:08:43.954Z,22.96
2016-09-01T09:09:43.962Z,23
2016-09-01T09:10:43.950Z,22.99
2016-09-01T09:11:43.955Z,23.04
2016-09-01T09:12:43.964Z,23.29
2016-09-01T09:13:43.959Z,23.35
2016-09-01T09:14:44.790Z,23.5
2016-09-01T09:15:43.961Z,23.7
2016-09-01T09:16:43.967Z,23.89
2016-09-01T09:17:43.958Z,24.11
2016-09-01T09:18:43.956Z,24.21
2016-09-01T09:19:43.977Z,24.29
2016-09-01T09:20:43.973Z,24.45
2016-09-01T09:21:44.007Z,24.46
2016-09-01T09:22:44.521Z,24.52
2016-09-01T09:23:43.974Z,24.51
2016-09-01T09:24:43.965Z,24.54
2016-09-01T09:25:43.968Z,24.55
2016-09-01T09:26:43.965Z,24.49
2016-09-01T09:27:43.968Z,24.54
2016-09-01T09:28:43.970Z,24.46
2016-09-01T09:29:43.973Z,24.48
2016-09-01T09:30:44.704Z,24.58
2016-09-01T09:31:43.986Z,24.42
2016-09-01T09:32:43.987Z,24.3
2016-09-01T09:33:44.092Z,24.32
2016-09-01T09:34:43.983Z,24.39
2016-09-01T09:35:44.666Z,24.32
2016-09-01T09:36:44.083Z,24.36
2016-09-01T09:37:44.051Z,24.33
2016-09-01T09:38:43.986Z,24.36
2016-09-01T09:39:43.997Z,24.17
2016-09-01T09:40:43.989Z,24.17
2016-09-01T09:41:43.990Z,23.99
2016-09-01T09:42:43.995Z,23.96
2016-09-01T09:43:43.992Z,23.82
2016-09-01T09:44:44.002Z,23.71
2016-09-01T09:45:44.002Z,23.64
2016-09-01T09:46:44.004Z,23.67
2016-09-01T09:47:44.009Z,23.66
2016-09-01T09:48:44.000Z,23.59
2016-09-01T09:49:44.016Z,23.64
2016-09-01T09:50:44.011Z,23.62
2016-09-01T09:51:44.022Z,23.56
2016-09-01T09:52:44.024Z,23.42
2016-09-01T09:53:44.009Z,23.45
2016-09-01T09:54:44.014Z,23.24
2016-09-01T09:55:44.025Z,23.28
2016-09-01T09:56:44.017Z,23.1
2016-09-01T09:57:44.033Z,23.01
2016-09-01T09:58:44.029Z,23
2016-09-01T09:59:44.738Z,22.89
2016-09-01T10:00:44.030Z,22.84
2016-09-01T10:01:44.024Z,22.79
2016-09-01T10:02:44.028Z,22.71
2016-09-01T10:03:44.027Z,22.66
2016-09-01T10:04:44.029Z,22.63
2016-09-01T10:05:44.032Z,22.52
2016-09-01T10:06:44.042Z,22.54
2016-09-01T10:07:44.038Z,22.44
2016-09-01T10:08:44.038Z,22.39
2016-09-01T10:09:44.030Z,22.49
2016-09-01T10:10:44.037Z,22.42
2016-09-01T10:11:44.039Z,22.33
2016-09-01T10:12:44.043Z,22.48
2016-09-01T10:13:44.066Z,22.46
2016-09-01T10:14:44.054Z,22.49
2016-09-01T10:15:44.049Z,22.51
2016-09-01T10:16:44.054Z,22.57
2016-09-01T10:17:44.795Z,22.66
2016-09-01T10:18:44.078Z,22.71
2016-09-01T10:19:44.051Z,22.84
2016-09-01T10:20:44.044Z,22.88
2016-09-01T10:21:44.051Z,22.94
2016-09-01T10:22:44.063Z,23.06
2016-09-01T10:23:44.254Z,23.03
2016-09-01T10:24:44.322Z,23.15
2016-09-01T10:25:44.053Z,23.15
2016-09-01T10:26:44.072Z,23.16
2016-09-01T10:27:44.062Z,23.1
2016-09-01T10:28:44.058Z,23.16
2016-09-01T10:29:44.058Z,23.12
2016-09-01T10:30:44.069Z,23.04
2016-09-01T10:31:44.063Z,23.01
2016-09-01T10:32:44.069Z,23
2016-09-01T10:33:44.788Z,22.97
2016-09-01T10:34:44.069Z,22.96
2016-09-01T10:35:44.064Z,22.94
2016-09-01T10:36:44.069Z,22.86
2016-09-01T10:37:44.119Z,22.99
2016-09-01T10:38:44.149Z,22.97
2016-09-01T10:39:44.072Z,23.06
2016-09-01T10:40:44.076Z,23.1
2016-09-01T10:41:44.076Z,23.28
2016-09-01T10:42:44.075Z,23.37
2016-09-01T10:43:44.083Z,23.34
2016-09-01T10:44:44.085Z,23.42
2016-09-01T10:45:44.078Z,23.66
2016-09-01T10:46:44.114Z,23.71
2016-09-01T10:47:44.081Z,23.77
2016-09-01T10:48:44.094Z,23.84
2016-09-01T10:49:44.096Z,23.97
2016-09-01T10:50:44.095Z,24
2016-09-01T10:51:58.975Z,23.99
2016-09-01T10:52:44.099Z,24.09
2016-09-01T10:53:44.090Z,23.99
2016-09-01T10:54:45.931Z,24.12
2016-09-01T10:55:44.095Z,24.14
2016-09-01T10:56:44.103Z,24.12
2016-09-01T10:57:44.113Z,24.12
2016-09-01T10:58:44.115Z,24.09
2016-09-01T10:59:44.142Z,24.09
2016-09-01T11:00:44.110Z,24.12
2016-09-01T11:01:44.106Z,24.19
2016-09-01T11:02:44.114Z,24.21
2016-09-01T11:03:44.108Z,24.24
2016-09-01T11:04:44.115Z,24.22
2016-09-01T11:05:44.138Z,24.34
2016-09-01T11:06:44.130Z,24.29
2016-09-01T11:07:44.118Z,24.33
2016-09-01T11:08:44.115Z,24.45
2016-09-01T11:09:44.122Z,24.49
2016-09-01T11:10:44.127Z,24.55
2016-09-01T11:11:44.761Z,24.74
2016-09-01T11:12:44.134Z,24.85
2016-09-01T11:13:44.128Z,24.87
2016-09-01T11:14:44.136Z,24.89
2016-09-01T11:15:44.137Z,24.9
2016-09-01T11:16:44.144Z,24.83
2016-09-01T11:17:44.164Z,24.67
2016-09-01T11:18:44.863Z,24.64
2016-09-01T11:19:44.136Z,24.61
2016-09-01T11:20:44.510Z,24.66
2016-09-01T11:21:44.139Z,24.67
2016-09-01T11:22:44.903Z,24.66
2016-09-01T11:23:44.206Z,24.66
2016-09-01T11:24:44.535Z,24.67
2016-09-01T11:25:44.159Z,24.64
2016-09-01T11:26:44.158Z,24.7
2016-09-01T11:27:44.150Z,24.66
2016-09-01T11:28:44.166Z,24.61
2016-09-01T11:29:44.162Z,24.61
2016-09-01T11:30:44.176Z,24.59
2016-09-01T11:31:45.766Z,24.54
2016-09-01T11:32:44.201Z,24.54
2016-09-01T11:33:49.378Z,24.51
2016-09-01T11:41:44.446Z,24.3
2016-09-01T11:42:44.856Z,24.39
2016-09-01T11:43:44.474Z,24.37
2016-09-01T11:44:44.467Z,24.4
2016-09-01T11:45:44.482Z,24.45
2016-09-01T11:46:44.463Z,24.55
2016-09-01T11:47:44.393Z,24.58
2016-09-01T11:48:44.407Z,24.67
2016-09-01T11:49:44.422Z,24.7
2016-09-01T11:50:44.408Z,24.74
2016-09-01T11:51:44.443Z,24.74
2016-09-01T11:52:44.423Z,24.85
2016-09-01T11:53:44.442Z,24.85
2016-09-01T11:54:44.444Z,24.66
2016-09-01T11:55:44.448Z,24.8
2016-09-01T11:56:44.466Z,24.71
2016-09-01T11:57:44.470Z,24.64
2016-09-01T11:58:44.451Z,24.51
2016-09-01T11:59:44.593Z,24.51
2016-09-01T12:00:44.383Z,24.44
2016-09-01T12:01:44.392Z,24.42
2016-09-01T12:02:44.394Z,24.34
2016-09-01T12:03:44.404Z,24.3
2016-09-01T12:04:44.421Z,24.32
2016-09-01T12:05:44.417Z,24.34
2016-09-01T12:06:44.424Z,24.3
2016-09-01T12:07:44.442Z,24.33
2016-09-01T12:08:44.437Z,24.32
2016-09-01T12:09:44.666Z,24.37
2016-09-01T12:10:45.492Z,24.37
2016-09-01T12:11:44.440Z,24.36
2016-09-01T12:12:44.439Z,24.29
2016-09-01T12:13:44.452Z,24.3
2016-09-01T12:18:44.422Z,24.45
2016-09-01T12:19:44.427Z,24.54
2016-09-01T12:20:44.419Z,24.56
2016-09-01T12:21:45.139Z,24.59
2016-09-01T12:22:44.442Z,24.67
2016-09-01T12:23:44.415Z,24.87
2016-09-01T12:24:44.441Z,24.82
2016-09-01T12:25:44.427Z,25
2016-09-01T12:26:44.434Z,24.96
2016-09-01T12:27:44.452Z,24.97
2016-09-01T12:28:44.454Z,25.05
2016-09-01T12:29:44.463Z,25.05
2016-09-01T12:30:44.470Z,25.08
2016-09-01T12:31:44.480Z,25.04
2016-09-01T12:32:44.483Z,24.94
2016-09-01T12:33:44.494Z,24.82
2016-09-01T12:34:44.498Z,24.87
2016-09-01T12:35:44.497Z,24.89
2016-09-01T12:36:44.410Z,24.85
2016-09-01T12:37:44.415Z,24.82
2016-09-01T12:38:44.430Z,24.8
2016-09-01T12:39:44.445Z,24.83
2016-09-01T12:40:44.436Z,24.94
2016-09-01T12:41:44.465Z,25.05
2016-09-01T12:42:44.455Z,25
2016-09-01T12:43:44.461Z,25.09
2016-09-01T12:44:44.474Z,25.23
2016-09-01T12:45:44.463Z,25.32
2016-09-01T12:46:44.480Z,25.26
2016-09-01T12:47:44.493Z,25.27
2016-09-01T12:48:44.392Z,25.2
2016-09-01T12:49:44.409Z,25.33
2016-09-01T12:50:44.399Z,25.32
2016-09-01T12:51:44.410Z,25.3
2016-09-01T12:52:44.429Z,25.23
2016-09-01T12:53:44.434Z,25.09
2016-09-01T12:54:44.459Z,24.97
2016-09-01T12:55:44.445Z,25.05
2016-09-01T12:56:44.456Z,25.07
2016-09-01T12:57:44.466Z,25.02
2016-09-01T12:58:44.485Z,25.04
2016-09-01T12:59:44.478Z,25.04
2016-09-01T13:00:44.482Z,25.14
2016-09-01T13:01:44.443Z,25.01
2016-09-01T13:02:44.449Z,25.08
2016-09-01T13:03:44.458Z,25.11
2016-09-01T13:04:44.465Z,25.02
2016-09-01T13:05:44.476Z,25.05
2016-09-01T13:06:44.468Z,25.02